sensor_id;sensor_type;location;lat;lon;timestamp;temperature;humidity
14995;DHT22;7593;49.006;8.372;2024-02-23T00:01:10;7.60;99.90
14995;DHT22;7593;49.006;8.372;2024-02-23T00:03:37;7.60;99.90
14995;DHT22;7593;49.006;8.372;2024-02-23T00:06:04;7.60;99.90
14995;DHT22;7593;49.006;8.372;2024-02-23T00:08:32;7.60;99.90
14995;DHT22;7593;49.006;8.372;2024-02-23T00:10:59;7.60;99.90
14995;DHT22;7593;49.006;8.372;2024-02-23T00:13:26;7.60;99.90
14995;DHT22;7593;49.006;8.372;2024-02-23T00:15:53;7.60;99.90
14995;DHT22;7593;49.006;8.372;2024-02-23T00:18:19;7.60;99.90
14995;DHT22;7593;49.006;8.372;2024-02-23T00:20:46;7.60;99.90
14995;DHT22;7593;49.006;8.372;2024-02-23T00:23:13;7.60;99.90
14995;DHT22;7593;49.006;8.372;2024-02-23T00:25:41;7.50;99.90
14995;DHT22;7593;49.006;8.372;2024-02-23T00:28:08;7.60;99.90
14995;DHT22;7593;49.006;8.372;2024-02-23T00:30:35;7.60;99.90
14995;DHT22;7593;49.006;8.372;2024-02-23T00:33:02;7.50;99.90
14995;DHT22;7593;49.006;8.372;2024-02-23T00:35:29;7.50;99.90
14995;DHT22;7593;49.006;8.372;2024-02-23T00:37:55;7.50;99.90
14995;DHT22;7593;49.006;8.372;2024-02-23T00:40:22;7.40;99.90
14995;DHT22;7593;49.006;8.372;2024-02-23T00:42:51;7.40;99.90
14995;DHT22;7593;49.006;8.372;2024-02-23T00:45:18;7.40;99.90
14995;DHT22;7593;49.006;8.372;2024-02-23T00:47:44;7.40;99.90
14995;DHT22;7593;49.006;8.372;2024-02-23T00:50:12;7.40;99.90
14995;DHT22;7593;49.006;8.372;2024-02-23T00:52:39;7.40;99.90
14995;DHT22;7593;49.006;8.372;2024-02-23T00:55:07;7.40;99.90
14995;DHT22;7593;49.006;8.372;2024-02-23T00:57:34;7.40;99.90
14995;DHT22;7593;49.006;8.372;2024-02-23T01:00:03;7.40;99.90
14995;DHT22;7593;49.006;8.372;2024-02-23T01:02:30;7.40;99.90
14995;DHT22;7593;49.006;8.372;2024-02-23T01:04:58;7.40;99.90
14995;DHT22;7593;49.006;8.372;2024-02-23T01:07:25;7.40;99.90
14995;DHT22;7593;49.006;8.372;2024-02-23T01:09:51;7.30;99.90
14995;DHT22;7593;49.006;8.372;2024-02-23T01:12:18;7.30;99.90
14995;DHT22;7593;49.006;8.372;2024-02-23T01:14:45;7.30;99.90
14995;DHT22;7593;49.006;8.372;2024-02-23T01:17:15;7.30;99.90
14995;DHT22;7593;49.006;8.372;2024-02-23T01:22:09;7.30;99.90
14995;DHT22;7593;49.006;8.372;2024-02-23T01:24:36;7.20;99.90
14995;DHT22;7593;49.006;8.372;2024-02-23T01:27:03;7.20;99.90
14995;DHT22;7593;49.006;8.372;2024-02-23T01:29:29;7.20;99.90
14995;DHT22;7593;49.006;8.372;2024-02-23T01:31:56;7.20;99.90
14995;DHT22;7593;49.006;8.372;2024-02-23T01:34:24;7.20;99.90
14995;DHT22;7593;49.006;8.372;2024-02-23T01:36:51;7.20;99.90
14995;DHT22;7593;49.006;8.372;2024-02-23T01:39:18;7.20;99.90
14995;DHT22;7593;49.006;8.372;2024-02-23T01:41:45;7.10;99.90
14995;DHT22;7593;49.006;8.372;2024-02-23T01:44:11;7.10;99.90
14995;DHT22;7593;49.006;8.372;2024-02-23T01:46:39;7.10;99.90
14995;DHT22;7593;49.006;8.372;2024-02-23T01:49:06;7.10;99.90
14995;DHT22;7593;49.006;8.372;2024-02-23T01:51:35;7.10;99.90
14995;DHT22;7593;49.006;8.372;2024-02-23T01:54:02;7.10;99.90
14995;DHT22;7593;49.006;8.372;2024-02-23T01:56:29;7.10;99.90
14995;DHT22;7593;49.006;8.372;2024-02-23T01:58:56;7.10;99.90
14995;DHT22;7593;49.006;8.372;2024-02-23T02:01:23;7.10;99.90
14995;DHT22;7593;49.006;8.372;2024-02-23T02:03:50;7.10;99.90
14995;DHT22;7593;49.006;8.372;2024-02-23T02:06:17;7.10;99.90
14995;DHT22;7593;49.006;8.372;2024-02-23T02:08:46;7.10;99.90
14995;DHT22;7593;49.006;8.372;2024-02-23T02:11:13;7.10;99.90
14995;DHT22;7593;49.006;8.372;2024-02-23T02:13:40;7.10;99.90
14995;DHT22;7593;49.006;8.372;2024-02-23T02:16:07;7.10;99.90
14995;DHT22;7593;49.006;8.372;2024-02-23T02:18:34;7.10;99.90
14995;DHT22;7593;49.006;8.372;2024-02-23T02:21:00;7.10;99.90
14995;DHT22;7593;49.006;8.372;2024-02-23T02:23:27;7.10;99.90
14995;DHT22;7593;49.006;8.372;2024-02-23T02:25:56;7.10;99.90
14995;DHT22;7593;49.006;8.372;2024-02-23T02:28:24;7.10;99.90
14995;DHT22;7593;49.006;8.372;2024-02-23T02:30:51;7.10;99.90
14995;DHT22;7593;49.006;8.372;2024-02-23T02:33:18;7.10;99.90
14995;DHT22;7593;49.006;8.372;2024-02-23T02:35:45;7.10;99.90
14995;DHT22;7593;49.006;8.372;2024-02-23T02:38:12;7.10;99.90
14995;DHT22;7593;49.006;8.372;2024-02-23T02:40:38;7.00;99.90
14995;DHT22;7593;49.006;8.372;2024-02-23T02:43:07;7.00;99.90
14995;DHT22;7593;49.006;8.372;2024-02-23T02:45:33;7.00;99.90
14995;DHT22;7593;49.006;8.372;2024-02-23T02:48:00;7.00;99.90
14995;DHT22;7593;49.006;8.372;2024-02-23T02:50:27;7.00;99.90
14995;DHT22;7593;49.006;8.372;2024-02-23T02:52:54;7.00;99.90
14995;DHT22;7593;49.006;8.372;2024-02-23T02:55:22;6.90;99.90
14995;DHT22;7593;49.006;8.372;2024-02-23T02:57:48;6.90;99.90
14995;DHT22;7593;49.006;8.372;2024-02-23T03:00:17;6.90;99.90
14995;DHT22;7593;49.006;8.372;2024-02-23T03:02:43;6.90;99.90
14995;DHT22;7593;49.006;8.372;2024-02-23T03:05:10;6.90;99.90
14995;DHT22;7593;49.006;8.372;2024-02-23T03:07:37;6.90;99.90
14995;DHT22;7593;49.006;8.372;2024-02-23T03:10:04;6.90;99.90
14995;DHT22;7593;49.006;8.372;2024-02-23T03:12:32;6.90;99.90
14995;DHT22;7593;49.006;8.372;2024-02-23T03:15:06;6.90;99.90
14995;DHT22;7593;49.006;8.372;2024-02-23T03:17:34;6.90;99.90
14995;DHT22;7593;49.006;8.372;2024-02-23T03:20:01;6.80;99.90
14995;DHT22;7593;49.006;8.372;2024-02-23T03:22:30;6.80;99.90
14995;DHT22;7593;49.006;8.372;2024-02-23T03:24:57;6.80;99.90
14995;DHT22;7593;49.006;8.372;2024-02-23T03:27:28;6.80;99.90
14995;DHT22;7593;49.006;8.372;2024-02-23T03:29:56;6.70;99.90
14995;DHT22;7593;49.006;8.372;2024-02-23T03:32:23;6.70;99.90
14995;DHT22;7593;49.006;8.372;2024-02-23T03:34:51;6.60;99.90
14995;DHT22;7593;49.006;8.372;2024-02-23T03:37:17;6.60;99.90
14995;DHT22;7593;49.006;8.372;2024-02-23T03:39:44;6.70;99.90
14995;DHT22;7593;49.006;8.372;2024-02-23T03:42:11;6.70;99.90
14995;DHT22;7593;49.006;8.372;2024-02-23T03:44:38;6.70;99.90
14995;DHT22;7593;49.006;8.372;2024-02-23T03:47:05;6.70;99.90
14995;DHT22;7593;49.006;8.372;2024-02-23T03:49:31;6.70;99.90
14995;DHT22;7593;49.006;8.372;2024-02-23T03:51:59;6.70;99.90
14995;DHT22;7593;49.006;8.372;2024-02-23T03:54:27;6.70;99.90
14995;DHT22;7593;49.006;8.372;2024-02-23T03:56:53;6.80;99.90
14995;DHT22;7593;49.006;8.372;2024-02-23T03:59:20;6.70;99.90
14995;DHT22;7593;49.006;8.372;2024-02-23T04:01:47;6.70;99.90
14995;DHT22;7593;49.006;8.372;2024-02-23T04:04:14;6.70;99.90
14995;DHT22;7593;49.006;8.372;2024-02-23T04:06:40;6.70;99.90
14995;DHT22;7593;49.006;8.372;2024-02-23T04:09:09;6.70;99.90
14995;DHT22;7593;49.006;8.372;2024-02-23T04:11:35;6.70;99.90
14995;DHT22;7593;49.006;8.372;2024-02-23T04:14:02;6.70;99.90
14995;DHT22;7593;49.006;8.372;2024-02-23T04:16:30;6.60;99.90
14995;DHT22;7593;49.006;8.372;2024-02-23T04:18:57;6.70;99.90
14995;DHT22;7593;49.006;8.372;2024-02-23T04:21:24;6.60;99.90
14995;DHT22;7593;49.006;8.372;2024-02-23T04:23:52;6.70;99.90
14995;DHT22;7593;49.006;8.372;2024-02-23T04:26:20;6.60;99.90
14995;DHT22;7593;49.006;8.372;2024-02-23T04:28:46;6.60;99.90
14995;DHT22;7593;49.006;8.372;2024-02-23T04:31:13;6.60;99.90
14995;DHT22;7593;49.006;8.372;2024-02-23T04:33:40;6.60;99.90
14995;DHT22;7593;49.006;8.372;2024-02-23T04:36:07;6.60;99.90
14995;DHT22;7593;49.006;8.372;2024-02-23T04:38:34;6.60;99.90
14995;DHT22;7593;49.006;8.372;2024-02-23T04:41:03;6.50;99.90
14995;DHT22;7593;49.006;8.372;2024-02-23T04:43:31;6.50;99.90
14995;DHT22;7593;49.006;8.372;2024-02-23T04:46:05;6.50;99.90
14995;DHT22;7593;49.006;8.372;2024-02-23T04:48:32;6.40;99.90
14995;DHT22;7593;49.006;8.372;2024-02-23T04:50:59;6.40;99.90
14995;DHT22;7593;49.006;8.372;2024-02-23T04:53:25;6.40;99.90
14995;DHT22;7593;49.006;8.372;2024-02-23T04:55:52;6.40;99.90
14995;DHT22;7593;49.006;8.372;2024-02-23T04:58:19;6.40;99.90
14995;DHT22;7593;49.006;8.372;2024-02-23T05:00:47;6.40;99.90
14995;DHT22;7593;49.006;8.372;2024-02-23T05:03:14;6.50;99.90
14995;DHT22;7593;49.006;8.372;2024-02-23T05:05:41;6.50;99.90
14995;DHT22;7593;49.006;8.372;2024-02-23T05:08:08;6.50;99.90
14995;DHT22;7593;49.006;8.372;2024-02-23T05:10:35;6.50;99.90
14995;DHT22;7593;49.006;8.372;2024-02-23T05:13:01;6.50;99.90
14995;DHT22;7593;49.006;8.372;2024-02-23T05:15:28;6.50;99.90
14995;DHT22;7593;49.006;8.372;2024-02-23T05:17:57;6.50;99.90
14995;DHT22;7593;49.006;8.372;2024-02-23T05:20:23;6.50;99.90
14995;DHT22;7593;49.006;8.372;2024-02-23T05:22:50;6.50;99.90
14995;DHT22;7593;49.006;8.372;2024-02-23T05:25:17;6.40;99.90
14995;DHT22;7593;49.006;8.372;2024-02-23T05:27:43;6.40;99.90
14995;DHT22;7593;49.006;8.372;2024-02-23T05:30:12;6.40;99.90
14995;DHT22;7593;49.006;8.372;2024-02-23T05:32:38;6.30;99.90
14995;DHT22;7593;49.006;8.372;2024-02-23T05:35:07;6.30;99.90
14995;DHT22;7593;49.006;8.372;2024-02-23T05:37:35;6.30;99.90
14995;DHT22;7593;49.006;8.372;2024-02-23T05:40:03;6.20;99.90
14995;DHT22;7593;49.006;8.372;2024-02-23T05:42:29;6.20;99.90
14995;DHT22;7593;49.006;8.372;2024-02-23T05:44:56;6.20;99.90
14995;DHT22;7593;49.006;8.372;2024-02-23T05:47:23;6.20;99.90
14995;DHT22;7593;49.006;8.372;2024-02-23T05:49:50;6.20;99.90
14995;DHT22;7593;49.006;8.372;2024-02-23T05:52:18;6.20;99.90
14995;DHT22;7593;49.006;8.372;2024-02-23T05:54:45;6.10;99.90
14995;DHT22;7593;49.006;8.372;2024-02-23T05:57:14;6.10;99.90
14995;DHT22;7593;49.006;8.372;2024-02-23T05:59:41;6.10;99.90
14995;DHT22;7593;49.006;8.372;2024-02-23T06:02:08;6.00;99.90
14995;DHT22;7593;49.006;8.372;2024-02-23T06:04:34;6.00;99.90
14995;DHT22;7593;49.006;8.372;2024-02-23T06:07:01;5.90;99.90
14995;DHT22;7593;49.006;8.372;2024-02-23T06:09:31;5.90;99.90
14995;DHT22;7593;49.006;8.372;2024-02-23T06:11:58;5.90;99.90
14995;DHT22;7593;49.006;8.372;2024-02-23T06:14:25;5.90;99.90
14995;DHT22;7593;49.006;8.372;2024-02-23T06:16:53;5.90;99.90
14995;DHT22;7593;49.006;8.372;2024-02-23T06:19:23;5.80;99.90
14995;DHT22;7593;49.006;8.372;2024-02-23T06:21:50;5.90;99.90
14995;DHT22;7593;49.006;8.372;2024-02-23T06:24:17;5.80;99.90
14995;DHT22;7593;49.006;8.372;2024-02-23T06:26:49;5.80;99.90
14995;DHT22;7593;49.006;8.372;2024-02-23T06:29:18;5.80;99.90
14995;DHT22;7593;49.006;8.372;2024-02-23T06:31:45;5.80;99.90
14995;DHT22;7593;49.006;8.372;2024-02-23T06:34:14;5.90;99.90
14995;DHT22;7593;49.006;8.372;2024-02-23T06:36:41;5.90;99.90
14995;DHT22;7593;49.006;8.372;2024-02-23T06:39:08;5.90;99.90
14995;DHT22;7593;49.006;8.372;2024-02-23T06:41:35;5.90;99.90
14995;DHT22;7593;49.006;8.372;2024-02-23T06:44:05;5.90;99.90
14995;DHT22;7593;49.006;8.372;2024-02-23T06:46:32;5.90;99.90
14995;DHT22;7593;49.006;8.372;2024-02-23T06:48:59;5.90;99.90
14995;DHT22;7593;49.006;8.372;2024-02-23T06:51:26;5.90;99.90
14995;DHT22;7593;49.006;8.372;2024-02-23T06:53:53;5.90;99.90
14995;DHT22;7593;49.006;8.372;2024-02-23T06:56:20;5.90;99.90
14995;DHT22;7593;49.006;8.372;2024-02-23T06:58:47;5.90;99.90
14995;DHT22;7593;49.006;8.372;2024-02-23T07:01:15;5.80;99.90
14995;DHT22;7593;49.006;8.372;2024-02-23T07:03:41;5.80;99.90
14995;DHT22;7593;49.006;8.372;2024-02-23T07:06:10;5.80;99.90
14995;DHT22;7593;49.006;8.372;2024-02-23T07:08:37;5.80;99.90
14995;DHT22;7593;49.006;8.372;2024-02-23T07:11:04;5.70;99.90
14995;DHT22;7593;49.006;8.372;2024-02-23T07:13:31;5.70;99.90
14995;DHT22;7593;49.006;8.372;2024-02-23T07:15:58;5.70;99.90
14995;DHT22;7593;49.006;8.372;2024-02-23T07:18:27;5.70;99.90
14995;DHT22;7593;49.006;8.372;2024-02-23T07:20:54;5.70;99.90
14995;DHT22;7593;49.006;8.372;2024-02-23T07:23:21;5.70;99.90
14995;DHT22;7593;49.006;8.372;2024-02-23T07:25:49;5.70;99.90
14995;DHT22;7593;49.006;8.372;2024-02-23T07:28:16;5.70;99.90
14995;DHT22;7593;49.006;8.372;2024-02-23T07:30:45;5.70;99.90
14995;DHT22;7593;49.006;8.372;2024-02-23T07:33:11;5.70;99.90
14995;DHT22;7593;49.006;8.372;2024-02-23T07:35:39;5.70;99.90
14995;DHT22;7593;49.006;8.372;2024-02-23T07:38:06;5.70;99.90
14995;DHT22;7593;49.006;8.372;2024-02-23T07:40:33;5.70;99.90
14995;DHT22;7593;49.006;8.372;2024-02-23T07:43:00;5.70;99.90
14995;DHT22;7593;49.006;8.372;2024-02-23T07:45:26;5.80;99.90
14995;DHT22;7593;49.006;8.372;2024-02-23T07:47:53;5.90;99.90
14995;DHT22;7593;49.006;8.372;2024-02-23T07:50:20;6.00;99.90
14995;DHT22;7593;49.006;8.372;2024-02-23T07:52:48;6.20;99.90
14995;DHT22;7593;49.006;8.372;2024-02-23T07:55:15;6.50;99.90
14995;DHT22;7593;49.006;8.372;2024-02-23T07:57:42;6.80;99.90
14995;DHT22;7593;49.006;8.372;2024-02-23T08:00:09;7.20;99.90
14995;DHT22;7593;49.006;8.372;2024-02-23T08:02:36;7.60;99.90
14995;DHT22;7593;49.006;8.372;2024-02-23T08:05:05;7.80;99.90
14995;DHT22;7593;49.006;8.372;2024-02-23T08:07:32;8.10;99.90
14995;DHT22;7593;49.006;8.372;2024-02-23T08:10:00;8.30;99.90
14995;DHT22;7593;49.006;8.372;2024-02-23T08:12:28;8.60;99.90
14995;DHT22;7593;49.006;8.372;2024-02-23T08:14:55;8.80;99.90
14995;DHT22;7593;49.006;8.372;2024-02-23T08:17:21;8.80;99.90
14995;DHT22;7593;49.006;8.372;2024-02-23T08:19:48;8.90;99.90
14995;DHT22;7593;49.006;8.372;2024-02-23T08:22:15;8.90;99.90
14995;DHT22;7593;49.006;8.372;2024-02-23T08:24:42;9.00;99.90
14995;DHT22;7593;49.006;8.372;2024-02-23T08:27:10;9.00;99.90
14995;DHT22;7593;49.006;8.372;2024-02-23T08:29:37;9.20;99.90
14995;DHT22;7593;49.006;8.372;2024-02-23T08:32:05;9.30;99.90
14995;DHT22;7593;49.006;8.372;2024-02-23T08:34:32;9.60;99.90
14995;DHT22;7593;49.006;8.372;2024-02-23T08:36:59;9.50;99.90
14995;DHT22;7593;49.006;8.372;2024-02-23T08:39:26;9.60;99.90
14995;DHT22;7593;49.006;8.372;2024-02-23T08:41:54;9.70;99.90
14995;DHT22;7593;49.006;8.372;2024-02-23T08:44:22;9.80;99.90
14995;DHT22;7593;49.006;8.372;2024-02-23T08:46:49;9.80;99.90
14995;DHT22;7593;49.006;8.372;2024-02-23T08:49:15;9.80;99.90
14995;DHT22;7593;49.006;8.372;2024-02-23T08:51:45;9.70;99.90
14995;DHT22;7593;49.006;8.372;2024-02-23T08:54:12;9.80;99.90
14995;DHT22;7593;49.006;8.372;2024-02-23T08:56:39;9.90;99.90
14995;DHT22;7593;49.006;8.372;2024-02-23T08:59:07;9.90;99.90
14995;DHT22;7593;49.006;8.372;2024-02-23T09:01:35;10.00;99.90
14995;DHT22;7593;49.006;8.372;2024-02-23T09:04:02;10.00;99.90
14995;DHT22;7593;49.006;8.372;2024-02-23T09:06:29;10.00;99.90
14995;DHT22;7593;49.006;8.372;2024-02-23T09:08:56;10.00;99.90
14995;DHT22;7593;49.006;8.372;2024-02-23T09:11:23;9.80;99.90
14995;DHT22;7593;49.006;8.372;2024-02-23T09:13:50;9.80;99.90
14995;DHT22;7593;49.006;8.372;2024-02-23T09:16:17;9.70;99.90
14995;DHT22;7593;49.006;8.372;2024-02-23T09:18:45;9.60;99.90
14995;DHT22;7593;49.006;8.372;2024-02-23T09:21:12;9.80;99.90
14995;DHT22;7593;49.006;8.372;2024-02-23T09:23:39;10.00;99.90
14995;DHT22;7593;49.006;8.372;2024-02-23T09:26:09;10.20;99.60
14995;DHT22;7593;49.006;8.372;2024-02-23T09:28:36;10.30;99.50
14995;DHT22;7593;49.006;8.372;2024-02-23T09:31:03;10.00;98.90
14995;DHT22;7593;49.006;8.372;2024-02-23T09:33:30;10.00;99.20
14995;DHT22;7593;49.006;8.372;2024-02-23T09:35:58;10.10;99.30
14995;DHT22;7593;49.006;8.372;2024-02-23T09:38:25;10.20;99.10
14995;DHT22;7593;49.006;8.372;2024-02-23T09:40:52;10.00;99.50
14995;DHT22;7593;49.006;8.372;2024-02-23T09:43:20;10.20;99.60
14995;DHT22;7593;49.006;8.372;2024-02-23T09:45:51;10.30;99.10
14995;DHT22;7593;49.006;8.372;2024-02-23T09:48:18;10.20;98.80
14995;DHT22;7593;49.006;8.372;2024-02-23T09:50:47;10.10;98.90
14995;DHT22;7593;49.006;8.372;2024-02-23T09:53:16;10.00;99.10
14995;DHT22;7593;49.006;8.372;2024-02-23T09:55:44;10.00;99.10
14995;DHT22;7593;49.006;8.372;2024-02-23T09:58:13;10.10;99.10
14995;DHT22;7593;49.006;8.372;2024-02-23T10:00:42;10.10;99.30
14995;DHT22;7593;49.006;8.372;2024-02-23T10:03:09;10.10;99.30
14995;DHT22;7593;49.006;8.372;2024-02-23T10:05:36;10.10;99.50
14995;DHT22;7593;49.006;8.372;2024-02-23T10:08:04;10.30;99.60
14995;DHT22;7593;49.006;8.372;2024-02-23T10:10:33;10.40;99.00
14995;DHT22;7593;49.006;8.372;2024-02-23T10:13:01;10.60;98.70
14995;DHT22;7593;49.006;8.372;2024-02-23T10:15:29;10.60;98.00
14995;DHT22;7593;49.006;8.372;2024-02-23T10:17:56;10.80;98.20
14995;DHT22;7593;49.006;8.372;2024-02-23T10:20:24;10.90;98.10
14995;DHT22;7593;49.006;8.372;2024-02-23T10:22:51;10.90;98.30
14995;DHT22;7593;49.006;8.372;2024-02-23T10:25:19;11.00;97.30
14995;DHT22;7593;49.006;8.372;2024-02-23T10:27:47;11.00;97.40
14995;DHT22;7593;49.006;8.372;2024-02-23T10:30:14;11.20;97.20
14995;DHT22;7593;49.006;8.372;2024-02-23T10:32:41;11.30;96.70
14995;DHT22;7593;49.006;8.372;2024-02-23T10:35:11;11.30;96.30
14995;DHT22;7593;49.006;8.372;2024-02-23T10:37:42;11.10;96.40
14995;DHT22;7593;49.006;8.372;2024-02-23T10:40:11;11.00;97.00
14995;DHT22;7593;49.006;8.372;2024-02-23T10:42:39;11.30;97.00
14995;DHT22;7593;49.006;8.372;2024-02-23T10:45:09;11.40;96.90
14995;DHT22;7593;49.006;8.372;2024-02-23T10:47:36;11.50;97.50
14995;DHT22;7593;49.006;8.372;2024-02-23T10:50:04;11.40;96.30
14995;DHT22;7593;49.006;8.372;2024-02-23T10:52:32;11.50;96.60
14995;DHT22;7593;49.006;8.372;2024-02-23T10:55:01;11.40;96.60
14995;DHT22;7593;49.006;8.372;2024-02-23T10:57:30;11.10;96.40
14995;DHT22;7593;49.006;8.372;2024-02-23T10:59:57;10.90;96.90
14995;DHT22;7593;49.006;8.372;2024-02-23T11:02:27;10.60;97.30
14995;DHT22;7593;49.006;8.372;2024-02-23T11:04:57;10.50;97.70
14995;DHT22;7593;49.006;8.372;2024-02-23T11:07:25;10.30;98.20
14995;DHT22;7593;49.006;8.372;2024-02-23T11:09:54;10.30;98.30
14995;DHT22;7593;49.006;8.372;2024-02-23T11:12:25;10.30;98.80
14995;DHT22;7593;49.006;8.372;2024-02-23T11:14:56;10.20;98.90
14995;DHT22;7593;49.006;8.372;2024-02-23T11:17:23;10.00;99.30
14995;DHT22;7593;49.006;8.372;2024-02-23T11:19:55;10.10;99.50
14995;DHT22;7593;49.006;8.372;2024-02-23T11:22:26;9.90;99.90
14995;DHT22;7593;49.006;8.372;2024-02-23T11:24:59;10.00;99.80
14995;DHT22;7593;49.006;8.372;2024-02-23T11:27:30;10.10;99.10
14995;DHT22;7593;49.006;8.372;2024-02-23T11:30:02;10.30;99.20
14995;DHT22;7593;49.006;8.372;2024-02-23T11:32:37;10.50;98.90
14995;DHT22;7593;49.006;8.372;2024-02-23T11:35:07;10.70;98.70
14995;DHT22;7593;49.006;8.372;2024-02-23T11:37:45;11.00;98.30
14995;DHT22;7593;49.006;8.372;2024-02-23T11:40:12;10.80;98.20
14995;DHT22;7593;49.006;8.372;2024-02-23T11:42:41;10.70;98.80
14995;DHT22;7593;49.006;8.372;2024-02-23T11:45:08;10.80;98.90
14995;DHT22;7593;49.006;8.372;2024-02-23T11:47:36;11.00;98.60
14995;DHT22;7593;49.006;8.372;2024-02-23T11:50:03;10.90;98.20
14995;DHT22;7593;49.006;8.372;2024-02-23T11:52:32;10.80;98.20
14995;DHT22;7593;49.006;8.372;2024-02-23T11:54:59;10.60;98.60
14995;DHT22;7593;49.006;8.372;2024-02-23T11:57:26;10.50;98.90
14995;DHT22;7593;49.006;8.372;2024-02-23T11:59:54;10.50;99.10
14995;DHT22;7593;49.006;8.372;2024-02-23T12:02:21;10.50;99.20
14995;DHT22;7593;49.006;8.372;2024-02-23T12:04:47;10.40;98.90
14995;DHT22;7593;49.006;8.372;2024-02-23T12:07:15;10.50;99.10
14995;DHT22;7593;49.006;8.372;2024-02-23T12:09:44;10.60;98.40
14995;DHT22;7593;49.006;8.372;2024-02-23T12:12:11;10.60;98.40
14995;DHT22;7593;49.006;8.372;2024-02-23T12:14:39;10.50;98.50
14995;DHT22;7593;49.006;8.372;2024-02-23T12:17:07;10.60;98.80
14995;DHT22;7593;49.006;8.372;2024-02-23T12:19:37;10.60;98.90
14995;DHT22;7593;49.006;8.372;2024-02-23T12:22:04;10.70;99.20
14995;DHT22;7593;49.006;8.372;2024-02-23T12:24:31;10.90;98.80
14995;DHT22;7593;49.006;8.372;2024-02-23T12:26:59;11.30;98.20
14995;DHT22;7593;49.006;8.372;2024-02-23T12:29:26;11.80;97.30
14995;DHT22;7593;49.006;8.372;2024-02-23T12:32:04;12.40;97.00
14995;DHT22;7593;49.006;8.372;2024-02-23T12:34:31;12.90;95.90
14995;DHT22;7593;49.006;8.372;2024-02-23T12:36:57;13.20;95.10
14995;DHT22;7593;49.006;8.372;2024-02-23T12:39:24;13.00;94.70
14995;DHT22;7593;49.006;8.372;2024-02-23T12:41:52;12.80;94.90
14995;DHT22;7593;49.006;8.372;2024-02-23T12:44:20;12.50;95.10
14995;DHT22;7593;49.006;8.372;2024-02-23T12:46:47;12.10;95.30
14995;DHT22;7593;49.006;8.372;2024-02-23T12:49:14;11.70;95.90
14995;DHT22;7593;49.006;8.372;2024-02-23T12:51:41;11.50;96.40
14995;DHT22;7593;49.006;8.372;2024-02-23T12:54:08;11.30;96.70
14995;DHT22;7593;49.006;8.372;2024-02-23T12:56:35;10.90;97.00
14995;DHT22;7593;49.006;8.372;2024-02-23T12:59:02;10.80;97.40
14995;DHT22;7593;49.006;8.372;2024-02-23T13:01:30;10.70;97.70
14995;DHT22;7593;49.006;8.372;2024-02-23T13:03:59;10.60;97.00
14995;DHT22;7593;49.006;8.372;2024-02-23T13:06:26;10.40;97.60
14995;DHT22;7593;49.006;8.372;2024-02-23T13:08:53;10.30;97.80
14995;DHT22;7593;49.006;8.372;2024-02-23T13:11:20;10.30;98.00
14995;DHT22;7593;49.006;8.372;2024-02-23T13:13:47;10.40;98.30
14995;DHT22;7593;49.006;8.372;2024-02-23T13:16:14;10.40;98.20
14995;DHT22;7593;49.006;8.372;2024-02-23T13:18:43;10.50;98.30
14995;DHT22;7593;49.006;8.372;2024-02-23T13:21:12;10.60;97.80
14995;DHT22;7593;49.006;8.372;2024-02-23T13:23:39;10.60;97.50
14995;DHT22;7593;49.006;8.372;2024-02-23T13:26:07;10.70;97.10
14995;DHT22;7593;49.006;8.372;2024-02-23T13:28:35;10.70;97.10
14995;DHT22;7593;49.006;8.372;2024-02-23T13:31:03;10.90;97.00
14995;DHT22;7593;49.006;8.372;2024-02-23T13:33:30;11.30;96.80
14995;DHT22;7593;49.006;8.372;2024-02-23T13:35:58;11.70;95.80
14995;DHT22;7593;49.006;8.372;2024-02-23T13:38:25;11.90;95.30
14995;DHT22;7593;49.006;8.372;2024-02-23T13:40:52;12.10;94.70
14995;DHT22;7593;49.006;8.372;2024-02-23T13:43:19;12.10;94.90
14995;DHT22;7593;49.006;8.372;2024-02-23T13:45:49;11.90;94.80
14995;DHT22;7593;49.006;8.372;2024-02-23T13:48:17;11.60;95.30
14995;DHT22;7593;49.006;8.372;2024-02-23T13:50:44;11.20;95.20
14995;DHT22;7593;49.006;8.372;2024-02-23T13:53:13;11.00;95.90
14995;DHT22;7593;49.006;8.372;2024-02-23T13:55:39;10.90;96.30
14995;DHT22;7593;49.006;8.372;2024-02-23T13:58:07;10.80;96.00
14995;DHT22;7593;49.006;8.372;2024-02-23T14:00:34;10.80;96.30
14995;DHT22;7593;49.006;8.372;2024-02-23T14:03:01;10.70;96.60
14995;DHT22;7593;49.006;8.372;2024-02-23T14:05:28;10.70;96.60
14995;DHT22;7593;49.006;8.372;2024-02-23T14:07:54;10.80;96.80
14995;DHT22;7593;49.006;8.372;2024-02-23T14:10:22;10.80;97.20
14995;DHT22;7593;49.006;8.372;2024-02-23T14:12:49;10.80;97.20
14995;DHT22;7593;49.006;8.372;2024-02-23T14:15:16;10.90;97.10
14995;DHT22;7593;49.006;8.372;2024-02-23T14:17:43;11.00;97.30
14995;DHT22;7593;49.006;8.372;2024-02-23T14:20:10;11.00;97.00
14995;DHT22;7593;49.006;8.372;2024-02-23T14:22:37;11.20;97.30
14995;DHT22;7593;49.006;8.372;2024-02-23T14:25:05;11.50;96.80
14995;DHT22;7593;49.006;8.372;2024-02-23T14:27:34;11.50;96.50
14995;DHT22;7593;49.006;8.372;2024-02-23T14:30:01;11.60;96.30
14995;DHT22;7593;49.006;8.372;2024-02-23T14:32:28;11.40;96.40
14995;DHT22;7593;49.006;8.372;2024-02-23T14:34:55;11.10;96.30
14995;DHT22;7593;49.006;8.372;2024-02-23T14:37:22;10.90;96.80
14995;DHT22;7593;49.006;8.372;2024-02-23T14:39:49;11.00;97.40
14995;DHT22;7593;49.006;8.372;2024-02-23T14:42:16;11.20;96.70
14995;DHT22;7593;49.006;8.372;2024-02-23T14:44:44;11.60;96.40
14995;DHT22;7593;49.006;8.372;2024-02-23T14:47:11;12.10;94.90
14995;DHT22;7593;49.006;8.372;2024-02-23T14:49:39;12.40;93.50
14995;DHT22;7593;49.006;8.372;2024-02-23T14:52:05;12.70;93.30
14995;DHT22;7593;49.006;8.372;2024-02-23T14:54:32;12.80;93.50
14995;DHT22;7593;49.006;8.372;2024-02-23T14:56:59;12.90;93.30
14995;DHT22;7593;49.006;8.372;2024-02-23T14:59:26;13.30;93.40
14995;DHT22;7593;49.006;8.372;2024-02-23T15:01:54;13.70;93.00
14995;DHT22;7593;49.006;8.372;2024-02-23T15:04:21;14.00;92.40
14995;DHT22;7593;49.006;8.372;2024-02-23T15:06:47;14.70;93.10
14995;DHT22;7593;49.006;8.372;2024-02-23T15:09:14;15.10;91.90
14995;DHT22;7593;49.006;8.372;2024-02-23T15:11:41;15.00;91.00
14995;DHT22;7593;49.006;8.372;2024-02-23T15:14:08;14.60;91.20
14995;DHT22;7593;49.006;8.372;2024-02-23T15:16:34;14.00;91.30
14995;DHT22;7593;49.006;8.372;2024-02-23T15:19:03;13.70;91.20
14995;DHT22;7593;49.006;8.372;2024-02-23T15:21:30;13.40;91.40
14995;DHT22;7593;49.006;8.372;2024-02-23T15:23:57;13.10;90.20
14995;DHT22;7593;49.006;8.372;2024-02-23T15:26:24;12.70;90.00
14995;DHT22;7593;49.006;8.372;2024-02-23T15:28:51;12.70;90.70
14995;DHT22;7593;49.006;8.372;2024-02-23T15:31:19;12.40;90.80
14995;DHT22;7593;49.006;8.372;2024-02-23T15:33:46;12.40;91.10
14995;DHT22;7593;49.006;8.372;2024-02-23T15:36:15;12.30;91.30
14995;DHT22;7593;49.006;8.372;2024-02-23T15:38:41;12.40;91.30
14995;DHT22;7593;49.006;8.372;2024-02-23T15:41:08;12.10;92.40
14995;DHT22;7593;49.006;8.372;2024-02-23T15:43:35;12.10;92.70
14995;DHT22;7593;49.006;8.372;2024-02-23T15:46:02;12.40;92.70
14995;DHT22;7593;49.006;8.372;2024-02-23T15:48:28;12.50;92.40
14995;DHT22;7593;49.006;8.372;2024-02-23T15:50:55;12.40;92.40
14995;DHT22;7593;49.006;8.372;2024-02-23T15:53:24;12.30;92.60
14995;DHT22;7593;49.006;8.372;2024-02-23T15:55:51;12.30;92.50
14995;DHT22;7593;49.006;8.372;2024-02-23T15:58:17;12.20;92.90